Map

Track Data

SID SEASON NUMBER BASIN SUBBASIN NAME ISO_TIME NATURE LAT LON WMO_WIND WMO_PRES WMO_AGENCY TRACK_TYPE DIST2LAND LANDFALL IFLAG USA_AGENCY USA_ATCF_ID USA_LAT USA_LON USA_RECORD USA_STATUS USA_WIND USA_PRES USA_SSHS USA_R34_NE USA_R34_SE USA_R34_SW USA_R34_NW USA_R50_NE USA_R50_SE USA_R50_SW USA_R50_NW USA_R64_NE USA_R64_SE USA_R64_SW USA_R64_NW USA_POCI USA_ROCI USA_RMW USA_EYE TOKYO_LAT TOKYO_LON TOKYO_GRADE TOKYO_WIND TOKYO_PRES TOKYO_R50_DIR TOKYO_R50_LONG TOKYO_R50_SHORT TOKYO_R30_DIR TOKYO_R30_LONG TOKYO_R30_SHORT TOKYO_LAND CMA_LAT CMA_LON CMA_CAT CMA_WIND CMA_PRES HKO_LAT HKO_LON HKO_CAT HKO_WIND HKO_PRES NEWDELHI_LAT NEWDELHI_LON NEWDELHI_GRADE NEWDELHI_WIND NEWDELHI_PRES NEWDELHI_CI NEWDELHI_DP NEWDELHI_POCI REUNION_LAT REUNION_LON REUNION_TYPE REUNION_WIND REUNION_PRES REUNION_TNUM REUNION_CI REUNION_RMW REUNION_R34_NE REUNION_R34_SE REUNION_R34_SW REUNION_R34_NW REUNION_R50_NE REUNION_R50_SE REUNION_R50_SW REUNION_R50_NW REUNION_R64_NE REUNION_R64_SE REUNION_R64_SW REUNION_R64_NW BOM_LAT BOM_LON BOM_TYPE BOM_WIND BOM_PRES BOM_TNUM BOM_CI BOM_RMW BOM_R34_NE BOM_R34_SE BOM_R34_SW BOM_R34_NW BOM_R50_NE BOM_R50_SE BOM_R50_SW BOM_R50_NW BOM_R64_NE BOM_R64_SE BOM_R64_SW BOM_R64_NW BOM_ROCI BOM_POCI BOM_EYE BOM_POS_METHOD BOM_PRES_METHOD NADI_LAT NADI_LON NADI_CAT NADI_WIND NADI_PRES WELLINGTON_LAT WELLINGTON_LON WELLINGTON_WIND WELLINGTON_PRES DS824_LAT DS824_LON DS824_STAGE DS824_WIND DS824_PRES TD9636_LAT TD9636_LON TD9636_STAGE TD9636_WIND TD9636_PRES TD9635_LAT TD9635_LON TD9635_WIND TD9635_PRES TD9635_ROCI NEUMANN_LAT NEUMANN_LON NEUMANN_CLASS NEUMANN_WIND NEUMANN_PRES MLC_LAT MLC_LON MLC_CLASS MLC_WIND MLC_PRES USA_GUST BOM_GUST BOM_GUST_PER REUNION_GUST REUNION_GUST_PER USA_SEAHGT USA_SEARAD_NE USA_SEARAD_SE USA_SEARAD_SW USA_SEARAD_NW STORM_SPEED STORM_DIR
2018211N27152 2018 50 WP MM NOT_NAMED 2018-07-30 00:00:00 NR 26.5000 152.300 main 1490 1465 O_____________ jtwc_wp WP162018 26.5000 152.300 DB 20 1004 -3 1005 150 160 9 14
2018211N27152 2018 50 WP MM NOT_NAMED 2018-07-30 03:00:00 NR 26.9400 152.420 main 1465 1425 P_____________ WP162018 26.9400 152.420 DB 22 1004 -3 1005 180 150 12 15
2018211N27152 2018 50 WP MM NOT_NAMED 2018-07-30 06:00:00 TS 27.6250 152.625 main 1425 1381 O_O___________ jtwc_wp WP162018 27.4000 152.500 TD 25 1004 -1 1005 210 140 28.3000 153.000 1 25 1002 12 5
2018211N27152 2018 50 WP MM NOT_NAMED 2018-07-30 09:00:00 TS 28.1077 152.526 main 1381 1345 P_P___________ WP162018 27.8925 152.515 TD 27 1002 -1 1004 195 105 28.5380 152.548 1 25 1002 10 347
2018211N27152 2018 50 WP MM NOT_NAMED 2018-07-30 12:00:00 TS 28.5714 152.371 main 1338 1302 O_O___________ jtwc_wp WP162018 28.4000 152.500 TD 30 1000 -1 1004 180 70 28.8000 152.200 1 25 1002 9 346
2018211N27152 2018 50 WP MM NOT_NAMED 2018-07-30 15:00:00 TS 29.0061 152.271 main 1302 1267 P_P___________ WP162018 28.9000 152.522 TD 30 1000 -1 1004 180 70 29.1123 152.019 1 27 1001 9 350
2018211N27152 2018 50 WP MM NOT_NAMED 2018-07-30 18:00:00 TS 29.4500 152.200 main 1261 1227 O_O___________ jtwc_wp WP162018 29.4000 152.500 TD 30 1000 -1 1004 180 70 29.5000 151.900 1 29 1000 40 9 349
2018211N27152 2018 50 WP MM NOT_NAMED 2018-07-30 21:00:00 TS 29.9274 152.058 main 1227 1180 P_P___________ WP162018 29.8848 152.417 TD 30 1000 -1 1004 175 70 29.9700 151.700 1 29 1000 10 343
2018211N27152 2018 50 WP MM NOT_NAMED 2018-07-31 00:00:00 TS 30.4500 151.850 main 1174 1120 O_O___________ jtwc_wp WP162018 30.4000 152.200 TD 30 1000 -1 1004 170 70 30.5000 151.500 1 29 1000 12 339
2018211N27152 2018 50 WP MM NOT_NAMED 2018-07-31 03:00:00 TS 31.0101 151.572 main 1120 1063 P_P___________ WP162018 30.9779 151.773 TD 30 1000 -1 1004 185 85 31.0423 151.372 1 29 1000 13 336
2018211N27152 2018 50 WP MM NOT_NAMED 2018-07-31 06:00:00 TS 31.6000 151.250 main 1063 999 O_O___________ jtwc_wp WP162018 31.6000 151.300 TD 30 1000 -1 1004 200 100 31.6000 151.200 1 29 1000 13 335
2018211N27152 2018 50 WP MM NOT_NAMED 2018-07-31 09:00:00 TS 32.2000 150.925 main 999 946 P_P___________ WP162018 32.2497 150.984 TD 30 1000 -1 1004 185 100 32.1502 150.865 1 29 1000 13 335
2018211N27152 2018 50 WP MM NOT_NAMED 2018-07-31 12:00:00 TS 32.8000 150.600 main 946 896 O_O___________ jtwc_wp WP162018 32.9000 150.700 TD 30 1000 -1 1004 170 100 32.7000 150.500 1 29 1000 13 336
2018211N27152 2018 50 WP MM NOT_NAMED 2018-07-31 15:00:00 TS 33.4012 150.289 main 896 852 P_P___________ WP162018 33.5451 150.343 TD 30 1000 -1 1004 192 100 33.2573 150.234 1 29 1000 13 336
2018211N27152 2018 50 WP MM NOT_NAMED 2018-07-31 18:00:00 TS 33.9500 150.000 main 849 812 O_O___________ jtwc_wp WP162018 34.1000 150.000 TD 30 1000 -1 1005 215 100 33.8000 150.000 1 29 1000 11 335
2018211N27152 2018 50 WP MM NOT_NAMED 2018-07-31 21:00:00 TS 34.4238 149.709 main 812 785 P_P___________ WP162018 34.5025 149.697 TD 30 1000 -1 1004 212 100 34.3451 149.720 1 29 1000 9 334
2018211N27152 2018 50 WP MM NOT_NAMED 2018-08-01 00:00:00 TS 34.8000 149.500 main 785 772 O_O___________ jtwc_wp WP162018 34.8000 149.500 TD 30 1000 -1 1004 210 100 34.8000 149.500 1 29 1000 7 338
2018211N27152 2018 50 WP MM NOT_NAMED 2018-08-01 03:00:00 TS 35.0498 149.396 main 772 768 P_P___________ WP162018 35.0424 149.440 TD 30 1000 -1 1003 172 100 35.0572 149.353 1 27 1001 5 355
2018211N27152 2018 50 WP MM NOT_NAMED 2018-08-01 06:00:00 MX 35.3000 149.450 main 777 769 O_O___________ jtwc_wp WP162018 35.3000 149.500 SD 30 1000 -2 1002 135 100 35.3000 149.400 1 25 1002 7 16
2018211N27152 2018 50 WP MM NOT_NAMED 2018-08-01 09:00:00 MX 35.7284 149.627 main 773 768 P_P___________ WP162018 35.6920 149.561 SD 32 998 -2 1002 117 100 35.7648 149.694 1 25 1002 10 28
2018211N27152 2018 50 WP MM NOT_NAMED 2018-08-01 12:00:00 MX 36.1500 150.000 main 782 782 O_O___________ jtwc_wp WP162018 36.1000 149.800 SS 35 996 -2 100 120 100 40 1002 100 100 36.2000 150.200 1 25 1002 10 49
2018211N27152 2018 50 WP MM NOT_NAMED 2018-08-01 15:00:00 MX 36.3977 150.569 main 819 819 P_P___________ WP162018 36.4077 150.318 SS 35 996 -2 100 120 100 70 1002 100 100 36.3878 150.821 1 25 1002 11 66
2018211N27152 2018 50 WP MM NOT_NAMED 2018-08-01 18:00:00 MX 36.6000 151.250 main 865 865 O_O___________ jtwc_wp WP162018 36.7000 151.000 SS 35 996 -2 100 120 100 100 1002 100 100 36.5000 151.500 1 25 1002 12 67
2018211N27152 2018 50 WP MM NOT_NAMED 2018-08-01 21:00:00 MX 36.8554 151.911 main 886 886 P_P___________ WP162018 37.0355 151.701 SS 35 996 -2 85 100 90 90 1002 100 100 36.6752 152.121 1 25 1002 12 62
2018211N27152 2018 50 WP MM NOT_NAMED 2018-08-02 00:00:00 MX 37.1500 152.550 main 897 O_O___________ jtwc_wp WP162018 37.4000 152.400 SS 35 996 -2 70 80 80 80 1002 100 100 36.9000 152.700 1 25 1002 12 60

Digital Typhoon Data and Search

About IBTrACS Database

This database is a web-friendly format of International Best Track Archive for Climate Stewardship (IBTrACS), a global best track data archive curated by NOAA dating back to 1842.

Updated: 2021-11-26